sensor_id;sensor_type;location;lat;lon;timestamp;temperature;humidity
77829;DHT22;67019;51.034;3.728;2024-01-11T00:00:50;-2.70;99.90
77829;DHT22;67019;51.034;3.728;2024-01-11T00:03:18;-2.60;99.90
77829;DHT22;67019;51.034;3.728;2024-01-11T00:05:46;-2.70;99.90
77829;DHT22;67019;51.034;3.728;2024-01-11T00:08:13;-3.00;99.90
77829;DHT22;67019;51.034;3.728;2024-01-11T00:10:41;-2.70;99.90
77829;DHT22;67019;51.034;3.728;2024-01-11T00:13:10;-2.50;99.90
77829;DHT22;67019;51.034;3.728;2024-01-11T00:15:38;-3.20;99.90
77829;DHT22;67019;51.034;3.728;2024-01-11T00:18:05;-2.90;99.90
77829;DHT22;67019;51.034;3.728;2024-01-11T00:20:34;-2.60;99.90
77829;DHT22;67019;51.034;3.728;2024-01-11T00:23:21;-2.70;99.90
77829;DHT22;67019;51.034;3.728;2024-01-11T00:25:49;-3.10;99.90
77829;DHT22;67019;51.034;3.728;2024-01-11T00:28:18;-2.80;99.90
77829;DHT22;67019;51.034;3.728;2024-01-11T00:30:46;-2.80;99.90
77829;DHT22;67019;51.034;3.728;2024-01-11T00:35:41;-2.80;99.90
77829;DHT22;67019;51.034;3.728;2024-01-11T00:38:08;-2.60;99.90
77829;DHT22;67019;51.034;3.728;2024-01-11T00:40:36;-2.20;99.90
77829;DHT22;67019;51.034;3.728;2024-01-11T00:43:04;-2.20;99.90
77829;DHT22;67019;51.034;3.728;2024-01-11T00:45:31;-2.60;99.90
77829;DHT22;67019;51.034;3.728;2024-01-11T01:14:23;-2.40;99.90
77829;DHT22;67019;51.034;3.728;2024-01-11T01:36:31;-2.50;99.90
77829;DHT22;67019;51.034;3.728;2024-01-11T01:41:26;-2.60;99.90
77829;DHT22;67019;51.034;3.728;2024-01-11T01:43:54;-2.80;99.90
77829;DHT22;67019;51.034;3.728;2024-01-11T01:48:54;-2.40;99.90
77829;DHT22;67019;51.034;3.728;2024-01-11T01:51:22;-2.70;99.90
77829;DHT22;67019;51.034;3.728;2024-01-11T01:53:51;-2.80;99.90
77829;DHT22;67019;51.034;3.728;2024-01-11T01:56:21;-3.10;99.90
77829;DHT22;67019;51.034;3.728;2024-01-11T01:58:50;-1.30;99.90
77829;DHT22;67019;51.034;3.728;2024-01-11T02:01:19;-3.00;99.90
77829;DHT22;67019;51.034;3.728;2024-01-11T02:08:46;-2.60;99.90
77829;DHT22;67019;51.034;3.728;2024-01-11T02:11:13;-2.90;99.90
77829;DHT22;67019;51.034;3.728;2024-01-11T02:16:09;-2.80;99.90
77829;DHT22;67019;51.034;3.728;2024-01-11T02:45:40;-2.90;99.90
77829;DHT22;67019;51.034;3.728;2024-01-11T04:19:00;-2.10;99.90
77829;DHT22;67019;51.034;3.728;2024-01-11T04:23:57;-2.90;99.90
77829;DHT22;67019;51.034;3.728;2024-01-11T04:26:24;-2.70;99.90
77829;DHT22;67019;51.034;3.728;2024-01-11T04:46:13;-2.80;99.90
77829;DHT22;67019;51.034;3.728;2024-01-11T04:56:09;-3.10;99.90
77829;DHT22;67019;51.034;3.728;2024-01-11T05:01:06;-3.00;99.90
77829;DHT22;67019;51.034;3.728;2024-01-11T05:20:45;-3.20;99.90
77829;DHT22;67019;51.034;3.728;2024-01-11T05:45:40;-3.30;99.90
77829;DHT22;67019;51.034;3.728;2024-01-11T06:44:42;-3.00;99.90
77829;DHT22;67019;51.034;3.728;2024-01-11T10:26:18;-1.60;99.90
77829;DHT22;67019;51.034;3.728;2024-01-11T11:13:37;-0.10;99.90
77829;DHT22;67019;51.034;3.728;2024-01-11T11:16:16;0.00;99.90
77829;DHT22;67019;51.034;3.728;2024-01-11T11:27:07;0.10;99.90
77829;DHT22;67019;51.034;3.728;2024-01-11T11:29:36;-0.20;99.90
77829;DHT22;67019;51.034;3.728;2024-01-11T11:34:53;0.10;99.90
77829;DHT22;67019;51.034;3.728;2024-01-11T11:37:25;0.20;99.90
77829;DHT22;67019;51.034;3.728;2024-01-11T11:40:10;-0.10;99.90
77829;DHT22;67019;51.034;3.728;2024-01-11T11:42:42;0.10;99.90
77829;DHT22;67019;51.034;3.728;2024-01-11T11:45:10;0.30;99.90
77829;DHT22;67019;51.034;3.728;2024-01-11T11:50:09;0.70;99.90
77829;DHT22;67019;51.034;3.728;2024-01-11T11:52:38;0.80;99.90
77829;DHT22;67019;51.034;3.728;2024-01-11T11:57:36;0.90;99.90
77829;DHT22;67019;51.034;3.728;2024-01-11T12:00:04;1.10;99.90
77829;DHT22;67019;51.034;3.728;2024-01-11T12:12:25;0.90;99.90
77829;DHT22;67019;51.034;3.728;2024-01-11T12:39:30;1.30;99.90
77829;DHT22;67019;51.034;3.728;2024-01-11T12:56:45;1.80;99.90
77829;DHT22;67019;51.034;3.728;2024-01-11T13:18:56;1.90;99.90
77829;DHT22;67019;51.034;3.728;2024-01-11T13:33:43;1.80;99.90
77829;DHT22;67019;51.034;3.728;2024-01-11T13:36:10;1.40;99.90
77829;DHT22;67019;51.034;3.728;2024-01-11T13:50:59;1.90;99.90
77829;DHT22;67019;51.034;3.728;2024-01-11T13:53:29;1.30;99.90
77829;DHT22;67019;51.034;3.728;2024-01-11T13:55:57;1.90;99.90
77829;DHT22;67019;51.034;3.728;2024-01-11T14:00:52;1.90;99.90
77829;DHT22;67019;51.034;3.728;2024-01-11T14:08:14;2.00;99.90
77829;DHT22;67019;51.034;3.728;2024-01-11T14:20:31;1.70;99.90
77829;DHT22;67019;51.034;3.728;2024-01-11T14:23:00;1.90;99.90
77829;DHT22;67019;51.034;3.728;2024-01-11T14:25:28;1.50;99.90
77829;DHT22;67019;51.034;3.728;2024-01-11T14:27:56;1.50;99.90
77829;DHT22;67019;51.034;3.728;2024-01-11T14:35:20;1.70;99.90
77829;DHT22;67019;51.034;3.728;2024-01-11T14:45:10;1.90;99.90
77829;DHT22;67019;51.034;3.728;2024-01-11T14:47:38;2.10;99.90
77829;DHT22;67019;51.034;3.728;2024-01-11T14:50:06;2.00;99.90
77829;DHT22;67019;51.034;3.728;2024-01-11T14:52:35;1.70;99.90
77829;DHT22;67019;51.034;3.728;2024-01-11T14:55:06;1.90;99.90
77829;DHT22;67019;51.034;3.728;2024-01-11T14:57:36;1.90;99.90
77829;DHT22;67019;51.034;3.728;2024-01-11T15:00:04;1.90;99.90
77829;DHT22;67019;51.034;3.728;2024-01-11T15:02:34;1.80;99.90
77829;DHT22;67019;51.034;3.728;2024-01-11T15:05:01;1.50;99.90
77829;DHT22;67019;51.034;3.728;2024-01-11T15:07:30;1.60;99.90
77829;DHT22;67019;51.034;3.728;2024-01-11T15:09:59;1.70;99.90
77829;DHT22;67019;51.034;3.728;2024-01-11T15:12:26;1.60;99.90
77829;DHT22;67019;51.034;3.728;2024-01-11T15:14:54;1.80;99.90
77829;DHT22;67019;51.034;3.728;2024-01-11T15:17:21;1.50;99.90
77829;DHT22;67019;51.034;3.728;2024-01-11T15:19:49;1.60;99.90
77829;DHT22;67019;51.034;3.728;2024-01-11T15:22:16;1.80;99.90
77829;DHT22;67019;51.034;3.728;2024-01-11T15:24:44;1.70;99.90
77829;DHT22;67019;51.034;3.728;2024-01-11T15:27:13;1.90;99.90
77829;DHT22;67019;51.034;3.728;2024-01-11T15:29:41;1.60;99.90
77829;DHT22;67019;51.034;3.728;2024-01-11T15:32:09;1.70;99.90
77829;DHT22;67019;51.034;3.728;2024-01-11T15:34:36;1.70;99.90
77829;DHT22;67019;51.034;3.728;2024-01-11T15:37:04;1.50;99.90
77829;DHT22;67019;51.034;3.728;2024-01-11T15:39:33;1.90;99.90
77829;DHT22;67019;51.034;3.728;2024-01-11T15:44:31;1.70;99.90
77829;DHT22;67019;51.034;3.728;2024-01-11T15:47:00;1.90;99.90
77829;DHT22;67019;51.034;3.728;2024-01-11T15:49:28;1.80;99.90
77829;DHT22;67019;51.034;3.728;2024-01-11T15:51:55;1.60;99.90
77829;DHT22;67019;51.034;3.728;2024-01-11T15:56:50;2.00;99.90
77829;DHT22;67019;51.034;3.728;2024-01-11T15:59:18;1.60;99.90
77829;DHT22;67019;51.034;3.728;2024-01-11T16:01:45;1.70;99.90
77829;DHT22;67019;51.034;3.728;2024-01-11T16:04:13;1.70;99.90
77829;DHT22;67019;51.034;3.728;2024-01-11T16:06:41;1.30;99.90
77829;DHT22;67019;51.034;3.728;2024-01-11T16:09:09;1.70;99.90
77829;DHT22;67019;51.034;3.728;2024-01-11T16:11:37;1.70;99.90
77829;DHT22;67019;51.034;3.728;2024-01-11T16:14:04;1.20;99.90
77829;DHT22;67019;51.034;3.728;2024-01-11T16:19:00;2.10;99.90
77829;DHT22;67019;51.034;3.728;2024-01-11T16:21:28;2.10;99.90
77829;DHT22;67019;51.034;3.728;2024-01-11T16:24:01;2.00;99.90
77829;DHT22;67019;51.034;3.728;2024-01-11T16:28:56;1.70;99.90
77829;DHT22;67019;51.034;3.728;2024-01-11T16:31:24;1.70;99.90
77829;DHT22;67019;51.034;3.728;2024-01-11T16:33:52;1.60;99.90
77829;DHT22;67019;51.034;3.728;2024-01-11T16:38:49;2.30;99.90
77829;DHT22;67019;51.034;3.728;2024-01-11T16:41:16;2.20;99.90
77829;DHT22;67019;51.034;3.728;2024-01-11T16:46:18;2.00;99.90
77829;DHT22;67019;51.034;3.728;2024-01-11T16:48:46;2.10;99.90
77829;DHT22;67019;51.034;3.728;2024-01-11T16:51:14;1.80;99.90
77829;DHT22;67019;51.034;3.728;2024-01-11T16:53:44;1.90;99.90
77829;DHT22;67019;51.034;3.728;2024-01-11T16:56:12;1.80;99.90
77829;DHT22;67019;51.034;3.728;2024-01-11T16:58:40;1.90;99.90
77829;DHT22;67019;51.034;3.728;2024-01-11T17:01:09;2.20;99.90
77829;DHT22;67019;51.034;3.728;2024-01-11T17:03:36;2.20;99.90
77829;DHT22;67019;51.034;3.728;2024-01-11T17:08:32;2.80;99.90
77829;DHT22;67019;51.034;3.728;2024-01-11T17:11:00;2.50;99.90
77829;DHT22;67019;51.034;3.728;2024-01-11T17:13:27;2.30;99.90
77829;DHT22;67019;51.034;3.728;2024-01-11T17:15:55;1.90;99.90
77829;DHT22;67019;51.034;3.728;2024-01-11T17:23:18;3.20;99.90
77829;DHT22;67019;51.034;3.728;2024-01-11T17:25:46;2.60;99.90
77829;DHT22;67019;51.034;3.728;2024-01-11T17:30:41;1.70;99.90
77829;DHT22;67019;51.034;3.728;2024-01-11T17:33:09;1.40;99.90
77829;DHT22;67019;51.034;3.728;2024-01-11T17:35:37;2.00;99.90
77829;DHT22;67019;51.034;3.728;2024-01-11T17:38:04;1.60;99.90
77829;DHT22;67019;51.034;3.728;2024-01-11T17:43:00;1.90;99.90
77829;DHT22;67019;51.034;3.728;2024-01-11T17:45:29;2.10;99.90
77829;DHT22;67019;51.034;3.728;2024-01-11T17:47:56;2.10;99.90
77829;DHT22;67019;51.034;3.728;2024-01-11T17:50:24;2.50;99.90
77829;DHT22;67019;51.034;3.728;2024-01-11T17:52:51;2.50;99.90
77829;DHT22;67019;51.034;3.728;2024-01-11T17:55:19;2.70;99.90
77829;DHT22;67019;51.034;3.728;2024-01-11T17:57:47;2.90;99.90
77829;DHT22;67019;51.034;3.728;2024-01-11T18:00:15;2.40;99.90
77829;DHT22;67019;51.034;3.728;2024-01-11T18:02:42;2.20;99.90
77829;DHT22;67019;51.034;3.728;2024-01-11T18:05:10;2.20;99.90
77829;DHT22;67019;51.034;3.728;2024-01-11T18:10:05;2.00;99.90
77829;DHT22;67019;51.034;3.728;2024-01-11T18:15:00;1.70;99.90
77829;DHT22;67019;51.034;3.728;2024-01-11T18:17:28;1.70;99.90
77829;DHT22;67019;51.034;3.728;2024-01-11T18:19:56;2.00;99.90
77829;DHT22;67019;51.034;3.728;2024-01-11T18:22:24;2.00;99.90
77829;DHT22;67019;51.034;3.728;2024-01-11T18:24:53;2.10;99.90
77829;DHT22;67019;51.034;3.728;2024-01-11T18:29:48;2.50;99.90
77829;DHT22;67019;51.034;3.728;2024-01-11T18:32:15;2.40;99.90
77829;DHT22;67019;51.034;3.728;2024-01-11T18:37:10;2.20;99.90
77829;DHT22;67019;51.034;3.728;2024-01-11T18:39:42;1.80;99.90
77829;DHT22;67019;51.034;3.728;2024-01-11T18:44:39;1.90;99.90
77829;DHT22;67019;51.034;3.728;2024-01-11T18:47:06;1.90;99.90
77829;DHT22;67019;51.034;3.728;2024-01-11T18:49:37;1.70;99.90
77829;DHT22;67019;51.034;3.728;2024-01-11T18:52:04;1.90;99.90
77829;DHT22;67019;51.034;3.728;2024-01-11T18:56:59;1.80;99.90
77829;DHT22;67019;51.034;3.728;2024-01-11T18:59:27;1.60;99.90
77829;DHT22;67019;51.034;3.728;2024-01-11T19:01:56;1.70;99.90
77829;DHT22;67019;51.034;3.728;2024-01-11T19:09:20;1.80;99.90
77829;DHT22;67019;51.034;3.728;2024-01-11T19:11:49;1.60;99.90
77829;DHT22;67019;51.034;3.728;2024-01-11T19:14:20;2.00;99.90
77829;DHT22;67019;51.034;3.728;2024-01-11T19:16:47;1.90;99.90
77829;DHT22;67019;51.034;3.728;2024-01-11T19:19:14;1.70;99.90
77829;DHT22;67019;51.034;3.728;2024-01-11T19:21:42;1.60;99.90
77829;DHT22;67019;51.034;3.728;2024-01-11T19:24:09;1.80;99.90
77829;DHT22;67019;51.034;3.728;2024-01-11T19:26:41;1.80;99.90
77829;DHT22;67019;51.034;3.728;2024-01-11T19:29:09;1.10;99.90
77829;DHT22;67019;51.034;3.728;2024-01-11T19:31:37;1.30;99.90
77829;DHT22;67019;51.034;3.728;2024-01-11T19:34:04;1.50;99.90
77829;DHT22;67019;51.034;3.728;2024-01-11T19:41:40;1.30;99.90
77829;DHT22;67019;51.034;3.728;2024-01-11T19:44:08;1.40;99.90
77829;DHT22;67019;51.034;3.728;2024-01-11T19:53:59;1.20;99.90
77829;DHT22;67019;51.034;3.728;2024-01-11T19:56:27;1.30;99.90
77829;DHT22;67019;51.034;3.728;2024-01-11T19:58:55;1.10;99.90
77829;DHT22;67019;51.034;3.728;2024-01-11T20:01:23;1.30;99.90
77829;DHT22;67019;51.034;3.728;2024-01-11T20:03:51;1.30;99.90
77829;DHT22;67019;51.034;3.728;2024-01-11T20:08:46;1.00;99.90
77829;DHT22;67019;51.034;3.728;2024-01-11T20:13:41;1.30;99.90
77829;DHT22;67019;51.034;3.728;2024-01-11T20:18:38;1.10;99.90
77829;DHT22;67019;51.034;3.728;2024-01-11T20:23:37;3.00;99.90
77829;DHT22;67019;51.034;3.728;2024-01-11T20:26:06;1.40;99.90
77829;DHT22;67019;51.034;3.728;2024-01-11T20:33:28;1.20;99.90
77829;DHT22;67019;51.034;3.728;2024-01-11T20:38:23;1.20;99.90
77829;DHT22;67019;51.034;3.728;2024-01-11T20:40:54;1.20;99.90
77829;DHT22;67019;51.034;3.728;2024-01-11T20:43:23;0.90;99.90
77829;DHT22;67019;51.034;3.728;2024-01-11T20:45:50;1.00;99.90
77829;DHT22;67019;51.034;3.728;2024-01-11T20:58:10;1.20;99.90
77829;DHT22;67019;51.034;3.728;2024-01-11T21:00:38;1.20;99.90
77829;DHT22;67019;51.034;3.728;2024-01-11T21:03:06;1.20;99.90
77829;DHT22;67019;51.034;3.728;2024-01-11T21:10:29;1.00;99.90
77829;DHT22;67019;51.034;3.728;2024-01-11T21:12:56;1.20;99.90
77829;DHT22;67019;51.034;3.728;2024-01-11T21:17:51;1.00;99.90
77829;DHT22;67019;51.034;3.728;2024-01-11T21:20:19;1.30;99.90
77829;DHT22;67019;51.034;3.728;2024-01-11T21:22:47;1.20;99.90
77829;DHT22;67019;51.034;3.728;2024-01-11T21:27:42;1.40;99.90
77829;DHT22;67019;51.034;3.728;2024-01-11T21:32:37;1.10;99.90
77829;DHT22;67019;51.034;3.728;2024-01-11T21:35:06;1.00;99.90
77829;DHT22;67019;51.034;3.728;2024-01-11T21:37:34;0.80;99.90
77829;DHT22;67019;51.034;3.728;2024-01-11T21:40:02;1.10;99.90
77829;DHT22;67019;51.034;3.728;2024-01-11T21:42:31;1.00;99.90
77829;DHT22;67019;51.034;3.728;2024-01-11T21:44:59;1.00;99.90
77829;DHT22;67019;51.034;3.728;2024-01-11T21:49:54;1.20;99.90
77829;DHT22;67019;51.034;3.728;2024-01-11T21:52:21;0.90;99.90
77829;DHT22;67019;51.034;3.728;2024-01-11T21:54:51;1.30;99.90
77829;DHT22;67019;51.034;3.728;2024-01-11T21:57:19;1.40;99.90
77829;DHT22;67019;51.034;3.728;2024-01-11T22:04:41;1.10;99.90
77829;DHT22;67019;51.034;3.728;2024-01-11T22:07:09;1.20;99.90
77829;DHT22;67019;51.034;3.728;2024-01-11T22:09:36;1.30;99.90
77829;DHT22;67019;51.034;3.728;2024-01-11T22:14:32;1.40;99.90
77829;DHT22;67019;51.034;3.728;2024-01-11T22:17:00;1.30;99.90
77829;DHT22;67019;51.034;3.728;2024-01-11T22:19:29;1.50;99.90
77829;DHT22;67019;51.034;3.728;2024-01-11T22:24:24;1.30;99.90
77829;DHT22;67019;51.034;3.728;2024-01-11T22:26:51;1.40;99.90
77829;DHT22;67019;51.034;3.728;2024-01-11T22:29:19;1.70;99.90
77829;DHT22;67019;51.034;3.728;2024-01-11T22:31:46;1.90;99.90
77829;DHT22;67019;51.034;3.728;2024-01-11T22:34:14;1.60;99.90
77829;DHT22;67019;51.034;3.728;2024-01-11T22:36:46;1.30;99.90
77829;DHT22;67019;51.034;3.728;2024-01-11T22:39:13;1.40;99.90
77829;DHT22;67019;51.034;3.728;2024-01-11T22:41:41;1.50;99.90
77829;DHT22;67019;51.034;3.728;2024-01-11T22:46:36;1.20;99.90
77829;DHT22;67019;51.034;3.728;2024-01-11T22:49:03;1.30;99.90
77829;DHT22;67019;51.034;3.728;2024-01-11T22:51:31;1.40;99.90
77829;DHT22;67019;51.034;3.728;2024-01-11T22:53:58;1.20;99.90
77829;DHT22;67019;51.034;3.728;2024-01-11T22:56:27;1.30;99.90
77829;DHT22;67019;51.034;3.728;2024-01-11T22:58:55;1.30;99.90
77829;DHT22;67019;51.034;3.728;2024-01-11T23:01:23;1.20;99.90
77829;DHT22;67019;51.034;3.728;2024-01-11T23:03:50;1.20;99.90
77829;DHT22;67019;51.034;3.728;2024-01-11T23:06:18;1.30;99.90
77829;DHT22;67019;51.034;3.728;2024-01-11T23:08:45;1.70;99.90
77829;DHT22;67019;51.034;3.728;2024-01-11T23:11:13;1.60;99.90
77829;DHT22;67019;51.034;3.728;2024-01-11T23:16:08;1.60;99.90
77829;DHT22;67019;51.034;3.728;2024-01-11T23:18:36;1.70;99.90
77829;DHT22;67019;51.034;3.728;2024-01-11T23:23:32;1.70;99.90
77829;DHT22;67019;51.034;3.728;2024-01-11T23:25:59;2.00;99.90
77829;DHT22;67019;51.034;3.728;2024-01-11T23:28:27;1.70;99.90
77829;DHT22;67019;51.034;3.728;2024-01-11T23:33:22;1.70;99.90
77829;DHT22;67019;51.034;3.728;2024-01-11T23:35:49;1.70;99.90
77829;DHT22;67019;51.034;3.728;2024-01-11T23:38:17;1.80;99.90
77829;DHT22;67019;51.034;3.728;2024-01-11T23:43:11;1.60;99.90
77829;DHT22;67019;51.034;3.728;2024-01-11T23:45:39;2.00;99.90
77829;DHT22;67019;51.034;3.728;2024-01-11T23:48:07;1.60;99.90
77829;DHT22;67019;51.034;3.728;2024-01-11T23:53:02;2.10;99.90
77829;DHT22;67019;51.034;3.728;2024-01-11T23:57:57;1.90;99.90
